Time;durP1;ratioP1;P1;durP2;ratioP2;P2;SDS_P1;SDS_P2;PMS_P1;PMS_P2;Temp;Humidity;BMP_temperature;BMP_pressure;BME280_temperature;BME280_humidity;BME280_pressure;Samples;Min_cycle;Max_cycle;Signal;HPM_P1;HPM_P2
2022/05/21 00:01:00;;;;;;;13.98;4.30;;;;;;;-149.78;100.00;50240.66;5083338;28;20490;-71
2022/05/21 00:03:25;;;;;;;8.15;3.17;;;;;;;-149.78;100.00;50256.31;5098886;28;20070;-71
2022/05/21 00:05:51;;;;;;;20.02;3.92;;;;;;;-149.78;100.00;50246.53;5134008;28;20114;-71
2022/05/21 00:08:17;;;;;;;16.63;3.45;;;;;;;-149.78;100.00;50240.66;5133892;28;20027;-71
2022/05/21 00:10:44;;;;;;;15.23;3.30;;;;;;;-149.78;100.00;50232.84;5133908;28;20484;-71
2022/05/21 00:13:11;;;;;;;15.18;3.30;;;;;;;-149.78;100.00;50225.03;5115694;28;20039;-71
2022/05/21 00:15:37;;;;;;;14.73;3.55;;;;;;;-149.78;100.00;50236.75;5115819;28;20039;-71
2022/05/21 00:18:04;;;;;;;16.15;3.55;;;;;;;-149.78;100.00;50217.19;5115994;28;20047;-72
2022/05/21 00:20:48;;;;;;;16.27;3.15;;;;;;;-149.78;100.00;50225.03;5133736;28;20031;-71
2022/05/21 00:23:28;;;;;;;8.35;2.75;;;;;;;-149.78;100.00;50225.03;5104075;28;20370;-71
2022/05/21 00:25:58;;;;;;;13.80;3.28;;;;;;;-149.78;100.00;50217.19;5115767;28;20466;-71
2022/05/21 00:28:24;;;;;;;11.82;3.33;;;;;;;-149.78;100.00;50240.66;5133628;28;20454;-71
2022/05/21 00:30:50;;;;;;;20.17;3.47;;;;;;;-149.78;100.00;50197.66;5133806;28;20046;-71
2022/05/21 00:33:16;;;;;;;14.90;3.40;;;;;;;-149.78;100.00;50248.50;5115262;28;20099;-71
2022/05/21 00:35:42;;;;;;;9.45;2.67;;;;;;;-149.78;100.00;50207.44;5133655;28;20039;-71
2022/05/21 00:38:09;;;;;;;13.23;3.30;;;;;;;-149.78;100.00;50250.44;5136070;27;20035;-71
2022/05/21 00:40:37;;;;;;;10.70;2.70;;;;;;;-149.78;100.00;50219.16;5119139;27;20134;-71
2022/05/21 00:43:02;;;;;;;13.52;2.63;;;;;;;-149.78;100.00;50228.94;5137677;27;20038;-71
2022/05/21 00:45:30;;;;;;;12.82;3.38;;;;;;;-149.78;100.00;50244.59;5118710;27;20027;-71
2022/05/21 00:47:55;;;;;;;14.35;2.90;;;;;;;-149.78;100.00;50203.50;5118977;27;20062;-71
2022/05/21 00:50:26;;;;;;;13.48;2.88;;;;;;;-149.78;100.00;50244.59;5102374;27;20466;-71
2022/05/21 00:52:53;;;;;;;7.90;2.35;;;;;;;-149.78;100.00;50252.41;5137214;27;20046;-71
2022/05/21 00:55:23;;;;;;;13.75;2.95;;;;;;;-149.78;100.00;50226.97;5103856;28;20156;-71
2022/05/21 00:59:47;;;;;;;16.80;3.13;;;;;;;-149.78;100.00;50223.06;5116820;28;20111;-71
2022/05/21 01:00:42;;;;;;;;;;;;;;;-149.78;100.00;50256.31;5117005;28;20024;-71
2022/05/21 01:03:09;;;;;;;13.60;2.50;;;;;;;-149.78;100.00;50240.66;5116582;28;19919;-71
2022/05/21 01:05:37;;;;;;;12.88;3.05;;;;;;;-149.78;100.00;50248.50;5081288;28;20059;-71
2022/05/21 01:08:03;;;;;;;13.52;3.92;;;;;;;-149.78;100.00;50232.84;5098338;28;20035;-71
2022/05/21 01:10:38;;;;;;;11.05;3.85;;;;;;;-149.78;100.00;50252.41;5081324;28;20051;-71
2022/05/21 01:13:10;;;;;;;16.95;3.42;;;;;;;-149.78;100.00;50236.75;5116161;28;20027;-72
2022/05/21 01:15:41;;;;;;;10.18;2.58;;;;;;;-149.78;100.00;50260.22;5116332;28;20031;-71
2022/05/21 01:18:08;;;;;;;10.93;2.20;;;;;;;-149.78;100.00;50250.44;5116379;28;20035;-71
2022/05/21 01:20:43;;;;;;;13.55;3.10;;;;;;;-149.78;100.00;50279.78;5097837;28;20073;-71
2022/05/21 01:23:09;;;;;;;11.85;3.17;;;;;;;-149.78;100.00;50256.31;5116199;28;20076;-71
2022/05/21 01:25:38;;;;;;;11.82;2.70;;;;;;;-149.78;100.00;50287.59;5115962;28;20036;-71
2022/05/21 01:28:08;;;;;;;14.27;3.38;;;;;;;-149.78;100.00;50268.03;5081655;27;20100;-71
2022/05/21 01:30:46;;;;;;;15.45;2.70;;;;;;;-149.78;100.00;50271.97;5133285;27;20031;-71
2022/05/21 01:33:15;;;;;;;16.65;2.92;;;;;;;-149.78;100.00;50271.97;5136476;27;20068;-71
2022/05/21 01:35:43;;;;;;;11.35;2.92;;;;;;;-149.78;100.00;50252.41;5136305;27;20351;-71
2022/05/21 01:38:10;;;;;;;11.15;3.38;;;;;;;-149.78;100.00;50240.66;5136363;27;20035;-71
2022/05/21 01:40:36;;;;;;;8.40;2.92;;;;;;;-149.78;100.00;50248.50;5136359;27;20066;-71
2022/05/21 01:45:48;;;;;;;12.85;3.17;;;;;;;-149.78;100.00;50240.66;5127449;27;20404;-71
2022/05/21 01:48:18;;;;;;;16.92;3.65;;;;;;;-149.78;100.00;50234.81;5135338;27;20092;-71
2022/05/21 01:50:46;;;;;;;13.63;2.88;;;;;;;-149.78;100.00;50234.81;5127744;27;20063;-71
2022/05/21 01:53:12;;;;;;;12.38;2.88;;;;;;;-149.78;100.00;50234.81;5128686;27;20031;-71
2022/05/21 01:55:42;;;;;;;15.77;2.85;;;;;;;-149.78;100.00;50268.03;5100530;27;20047;-71
2022/05/21 01:58:07;;;;;;;12.38;3.65;;;;;;;-149.78;100.00;50260.22;5117542;27;20027;-71
2022/05/21 02:00:34;;;;;;;7.78;2.70;;;;;;;-149.78;100.00;50240.66;5135602;27;20035;-71
2022/05/21 02:03:00;;;;;;;17.92;3.05;;;;;;;-149.78;100.00;50246.53;5135502;27;20032;-71
2022/05/21 02:05:25;;;;;;;15.85;3.13;;;;;;;-149.78;100.00;50285.66;5135905;27;20083;-71
2022/05/21 02:07:51;;;;;;;17.55;3.00;;;;;;;-149.78;100.00;50219.16;5135732;27;20067;-71
2022/05/21 02:10:18;;;;;;;8.93;2.92;;;;;;;-149.78;100.00;50268.03;5135936;27;20479;-71
2022/05/21 02:12:44;;;;;;;12.43;3.00;;;;;;;-149.78;100.00;50252.41;5117091;27;20077;-71
2022/05/21 02:15:10;;;;;;;12.40;2.90;;;;;;;-149.78;100.00;50246.53;5117193;27;20035;-71
2022/05/21 02:17:36;;;;;;;14.38;2.78;;;;;;;-149.78;100.00;50244.59;5131823;27;20035;-71
2022/05/21 02:20:02;;;;;;;13.98;4.13;;;;;;;-149.78;100.00;50264.13;5130578;27;20039;-71
2022/05/21 02:22:28;;;;;;;13.18;2.72;;;;;;;-149.78;100.00;50236.75;5135406;27;20097;-71
2022/05/21 02:24:53;;;;;;;10.60;2.75;;;;;;;-149.78;100.00;50236.75;5117403;27;20035;-71
2022/05/21 02:27:19;;;;;;;8.18;2.75;;;;;;;-149.78;100.00;50260.22;5135607;27;20046;-71
2022/05/21 02:29:45;;;;;;;13.90;2.70;;;;;;;-149.78;100.00;50262.19;5099783;27;20038;-70
2022/05/21 02:32:12;;;;;;;14.57;2.97;;;;;;;-149.78;100.00;50262.19;5116458;27;20027;-70
2022/05/21 02:34:40;;;;;;;10.38;3.10;;;;;;;-149.78;100.00;50295.44;5134790;27;20035;-71
2022/05/21 02:39:50;;;;;;;10.98;2.90;;;;;;;-149.78;100.00;50258.28;5135194;27;20031;-71
2022/05/21 02:45:00;;;;;;;11.25;2.75;;;;;;;-149.78;100.00;50262.19;5135212;27;20027;-71
2022/05/21 02:47:26;;;;;;;11.68;2.90;;;;;;;-149.78;100.00;50256.31;5116898;27;20035;-71
2022/05/21 02:49:52;;;;;;;13.27;3.22;;;;;;;-149.78;100.00;50262.19;5135108;27;20580;-71
2022/05/21 02:52:17;;;;;;;11.77;4.13;;;;;;;-149.78;100.00;50264.13;5134927;27;20087;-71
2022/05/21 02:54:43;;;;;;;10.43;3.03;;;;;;;-149.78;100.00;50283.69;5133213;27;20122;-71
2022/05/21 02:57:10;;;;;;;17.52;3.15;;;;;;;-149.78;100.00;50271.97;5116530;27;20084;-71
2022/05/21 02:59:36;;;;;;;10.20;2.85;;;;;;;-149.78;100.00;50221.13;5134456;27;20031;-71
2022/05/21 03:02:03;;;;;;;9.98;3.08;;;;;;;-149.78;100.00;50244.59;5134679;27;20466;-71
2022/05/21 03:04:28;;;;;;;8.35;2.70;;;;;;;-149.78;100.00;50256.31;5116189;27;20114;-71
2022/05/21 03:06:54;;;;;;;14.52;3.55;;;;;;;-149.78;100.00;50258.28;5134687;27;20578;-71
2022/05/21 03:12:04;;;;;;;9.10;2.40;;;;;;;-149.78;100.00;50230.88;5116229;27;20050;-71
2022/05/21 03:14:30;;;;;;;12.85;2.58;;;;;;;-149.78;100.00;50242.63;5116236;27;20043;-71
2022/05/21 03:16:59;;;;;;;9.60;2.75;;;;;;;-149.78;100.00;50260.22;5116184;27;20035;-70
2022/05/21 03:19:31;;;;;;;16.48;2.78;;;;;;;-149.78;100.00;50252.41;5117125;27;20386;-71
2022/05/21 03:21:57;;;;;;;10.85;2.90;;;;;;;-149.78;100.00;50254.34;5115980;27;20061;-71
2022/05/21 03:24:23;;;;;;;6.15;2.30;;;;;;;-149.78;100.00;50264.13;5127042;27;20032;-71
2022/05/21 03:26:49;;;;;;;9.98;2.80;;;;;;;-149.78;100.00;50236.75;5112613;28;20027;-71
2022/05/21 03:29:16;;;;;;;10.13;2.60;;;;;;;-149.78;100.00;50271.97;5113888;28;20032;-71
2022/05/21 03:31:41;;;;;;;12.02;2.78;;;;;;;-149.78;100.00;50293.47;5113906;28;20036;-71
2022/05/21 03:34:08;;;;;;;14.23;3.03;;;;;;;-149.78;100.00;50260.22;5128760;27;20526;-71
2022/05/21 03:36:34;;;;;;;7.22;2.58;;;;;;;-149.78;100.00;50260.22;5116097;28;20035;-71
2022/05/21 03:39:01;;;;;;;11.52;2.92;;;;;;;-149.78;100.00;50248.50;5099459;28;20043;-71
2022/05/21 03:41:27;;;;;;;10.50;3.28;;;;;;;-149.78;100.00;50279.78;5134493;28;20055;-71
2022/05/21 03:43:55;;;;;;;14.02;3.42;;;;;;;-149.78;100.00;50295.44;5115836;28;20091;-71
2022/05/21 03:46:21;;;;;;;10.80;3.08;;;;;;;-149.78;100.00;50248.50;5134306;28;20031;-71
2022/05/21 03:48:47;;;;;;;11.43;3.25;;;;;;;-149.78;100.00;50248.50;5115733;28;20114;-71
2022/05/21 03:51:13;;;;;;;15.00;2.92;;;;;;;-149.78;100.00;50295.44;5134073;28;20070;-70
2022/05/21 03:53:38;;;;;;;12.20;3.03;;;;;;;-149.78;100.00;50283.69;5108605;28;20031;-71
2022/05/21 03:56:05;;;;;;;12.18;2.97;;;;;;;-149.78;100.00;50303.25;5098398;28;20043;-71
2022/05/21 03:58:32;;;;;;;8.20;3.08;;;;;;;-149.78;100.00;50268.03;5133497;28;20490;-71
2022/05/21 04:00:57;;;;;;;9.68;2.58;;;;;;;-149.78;100.00;50291.50;5133733;28;20525;-70
2022/05/21 04:03:24;;;;;;;17.65;3.10;;;;;;;-149.78;100.00;50283.69;5132332;28;20051;-70
2022/05/21 04:05:53;;;;;;;10.30;2.72;;;;;;;-149.78;100.00;50258.28;5133231;28;20114;-71
2022/05/21 04:08:18;;;;;;;11.98;3.25;;;;;;;-149.78;100.00;50297.38;5115535;28;20084;-71
2022/05/21 04:10:44;;;;;;;9.68;2.78;;;;;;;-149.78;100.00;50271.97;5133845;28;20031;-71
2022/05/21 04:13:10;;;;;;;12.45;2.90;;;;;;;-149.78;100.00;50283.69;5118565;27;20076;-71
2022/05/21 04:15:35;;;;;;;12.43;2.65;;;;;;;-149.78;100.00;50291.50;5119755;27;20375;-71
2022/05/21 04:18:01;;;;;;;8.57;2.85;;;;;;;-149.78;100.00;50252.41;5137886;27;20046;-70
2022/05/21 04:20:27;;;;;;;11.75;2.58;;;;;;;-149.78;100.00;50240.66;5119592;27;20042;-71
2022/05/21 04:22:53;;;;;;;6.57;2.90;;;;;;;-149.78;100.00;50293.47;5119563;27;20060;-70
2022/05/21 04:25:19;;;;;;;10.20;2.85;;;;;;;-149.78;100.00;50287.59;5137903;27;20031;-71
2022/05/21 04:27:46;;;;;;;12.30;2.80;;;;;;;-149.78;100.00;50254.34;5137714;27;20038;-71
2022/05/21 04:30:20;;;;;;;12.18;2.90;;;;;;;-149.78;100.00;50277.81;5137789;27;20027;-71
2022/05/21 04:32:47;;;;;;;10.25;2.90;;;;;;;-149.78;100.00;50270.00;5119329;27;20114;-71
2022/05/21 04:35:14;;;;;;;12.90;3.40;;;;;;;-149.78;100.00;50266.09;5102303;27;20459;-71
2022/05/21 04:37:40;;;;;;;12.45;2.95;;;;;;;-149.78;100.00;50258.28;5137807;27;20031;-71
2022/05/21 04:40:10;;;;;;;12.15;3.50;;;;;;;-149.78;100.00;50264.13;5137296;27;20039;-71
2022/05/21 04:42:36;;;;;;;11.70;3.17;;;;;;;-149.78;100.00;50264.13;5137332;27;20103;-71
2022/05/21 04:45:03;;;;;;;11.75;3.33;;;;;;;-149.78;100.00;50287.59;5118772;27;20072;-71
2022/05/21 04:47:29;;;;;;;10.98;3.50;;;;;;;-149.78;100.00;50264.13;5136798;27;20061;-71
2022/05/21 04:49:54;;;;;;;14.35;3.60;;;;;;;-149.78;100.00;50283.69;5118535;27;20034;-71
2022/05/21 04:52:20;;;;;;;6.85;2.97;;;;;;;-149.78;100.00;50271.97;5101763;27;20035;-71
2022/05/21 04:54:45;;;;;;;13.80;3.80;;;;;;;-149.78;100.00;50279.78;5128612;27;20541;-71
2022/05/21 04:57:11;;;;;;;9.43;3.30;;;;;;;-149.78;100.00;50271.97;5119061;27;20398;-72
2022/05/21 04:59:37;;;;;;;7.68;2.70;;;;;;;-149.78;100.00;50264.13;5097929;28;20036;-71
2022/05/21 05:02:03;;;;;;;10.45;3.15;;;;;;;-149.78;100.00;50275.88;5133366;27;20095;-71
2022/05/21 05:04:28;;;;;;;10.32;3.05;;;;;;;-149.78;100.00;50268.03;5136839;27;20063;-70
2022/05/21 05:06:55;;;;;;;7.75;2.58;;;;;;;-149.78;100.00;50248.50;5101795;27;20035;-71
2022/05/21 05:09:22;;;;;;;10.68;3.00;;;;;;;-149.78;100.00;50236.75;5118778;27;20049;-71
2022/05/21 05:11:52;;;;;;;11.60;2.80;;;;;;;-149.78;100.00;50248.50;5118652;27;20478;-71
2022/05/21 05:14:19;;;;;;;9.80;2.30;;;;;;;-149.78;100.00;50217.19;5136735;27;20035;-71
2022/05/21 05:16:45;;;;;;;13.90;2.50;;;;;;;-149.78;100.00;50246.53;5118616;27;20483;-71
2022/05/21 05:19:10;;;;;;;6.05;2.20;;;;;;;-149.78;100.00;50248.50;5136854;27;20051;-69
2022/05/21 05:21:36;;;;;;;10.60;2.67;;;;;;;-149.78;100.00;50266.09;5136694;27;20060;-69
2022/05/21 05:24:02;;;;;;;10.95;2.65;;;;;;;-149.78;100.00;50254.34;5136511;27;20035;-70
2022/05/21 05:26:28;;;;;;;10.52;2.13;;;;;;;-149.78;100.00;50256.31;5118201;27;20031;-70
2022/05/21 05:28:54;;;;;;;8.90;1.98;;;;;;;-149.78;100.00;50266.09;5136602;27;20092;-70
2022/05/21 05:31:20;;;;;;;10.10;2.40;;;;;;;-149.78;100.00;50273.91;5136584;27;20041;-70
2022/05/21 05:33:45;;;;;;;8.63;2.00;;;;;;;-149.78;100.00;50291.50;5118177;27;20123;-70
2022/05/21 05:36:11;;;;;;;6.32;1.70;;;;;;;-149.78;100.00;50258.28;5136492;27;20031;-70
2022/05/21 05:38:37;;;;;;;10.65;2.17;;;;;;;-149.78;100.00;50236.75;5118147;27;20035;-70
2022/05/21 05:41:06;;;;;;;7.03;2.15;;;;;;;-149.78;100.00;50271.97;5101030;27;20043;-70
2022/05/21 05:43:32;;;;;;;5.68;2.55;;;;;;;-149.78;100.00;50295.44;5112095;27;20451;-70
2022/05/21 05:45:58;;;;;;;11.52;2.85;;;;;;;-149.78;100.00;50268.03;5101059;27;20035;-70
2022/05/21 05:48:28;;;;;;;12.23;2.58;;;;;;;-149.78;100.00;50240.66;5117612;27;20060;-70
2022/05/21 05:50:55;;;;;;;13.13;2.72;;;;;;;-149.78;100.00;50264.13;5117806;27;20035;-70
2022/05/21 05:53:21;;;;;;;9.65;2.03;;;;;;;-149.78;100.00;50256.31;5117741;27;20059;-70
2022/05/21 05:55:48;;;;;;;11.65;2.17;;;;;;;-149.78;100.00;50242.63;5117577;27;20043;-70
2022/05/21 06:01:07;;;;;;;9.82;2.13;;;;;;;-149.78;100.00;50268.03;5108678;27;20051;-70
2022/05/21 06:03:34;;;;;;;8.65;2.20;;;;;;;-149.78;100.00;50264.13;5115099;28;20110;-70
2022/05/21 06:06:01;;;;;;;11.88;3.00;;;;;;;-149.78;100.00;50236.75;5135482;27;20053;-70
2022/05/21 06:08:27;;;;;;;10.70;2.67;;;;;;;-149.78;100.00;50275.88;5135817;27;20463;-70
2022/05/21 06:10:52;;;;;;;10.23;1.92;;;;;;;-149.78;100.00;50271.97;5135633;27;20031;-70
2022/05/21 06:13:18;;;;;;;12.10;2.38;;;;;;;-149.78;100.00;50215.25;5100504;27;20115;-70
2022/05/21 06:15:43;;;;;;;13.23;2.88;;;;;;;-149.78;100.00;50301.28;5135675;27;20039;-70
2022/05/21 06:18:13;;;;;;;13.57;2.00;;;;;;;-149.78;100.00;50250.44;5135717;27;20060;-70
2022/05/21 06:20:39;;;;;;;9.38;2.10;;;;;;;-149.78;100.00;50252.41;5116618;27;20054;-70
2022/05/21 06:23:05;;;;;;;4.90;2.53;;;;;;;-149.78;100.00;50256.31;5114439;27;20071;-70
2022/05/21 06:25:33;;;;;;;7.63;2.13;;;;;;;-149.78;100.00;50240.66;5097455;27;20027;-70
2022/05/21 06:28:00;;;;;;;13.00;2.22;;;;;;;-149.78;100.00;50244.59;5102733;28;20063;-70
2022/05/21 06:30:27;;;;;;;6.25;2.20;;;;;;;-149.78;100.00;50248.50;5124502;27;20035;-70
2022/05/21 06:32:54;;;;;;;5.93;2.10;;;;;;;-149.78;100.00;50260.22;5103763;27;20041;-70
2022/05/21 06:35:20;;;;;;;10.23;2.28;;;;;;;-149.78;100.00;50297.38;5127439;27;20402;-71
2022/05/21 06:37:46;;;;;;;9.38;2.33;;;;;;;-149.78;100.00;50248.50;5120580;27;20031;-71
2022/05/21 06:40:14;;;;;;;14.05;2.45;;;;;;;-149.78;100.00;50260.22;5120602;27;20031;-72
2022/05/21 06:42:40;;;;;;;9.60;2.83;;;;;;;-149.78;100.00;50264.13;5122074;27;20039;-71
2022/05/21 06:45:07;;;;;;;10.27;2.35;;;;;;;-149.78;100.00;50256.31;5105506;27;20023;-71
2022/05/21 06:47:33;;;;;;;7.85;1.80;;;;;;;-149.78;100.00;50264.13;5107021;27;20342;-71
2022/05/21 06:49:59;;;;;;;8.75;1.80;;;;;;;-149.78;100.00;50256.31;5104345;27;20032;-72
2022/05/21 06:52:28;;;;;;;11.32;2.65;;;;;;;-149.78;100.00;50291.50;5110201;27;20518;-72
2022/05/21 06:54:54;;;;;;;11.57;2.35;;;;;;;-149.78;100.00;50279.78;5112417;27;20038;-71
2022/05/21 06:57:21;;;;;;;8.82;2.00;;;;;;;-149.78;100.00;50266.09;5120822;27;20039;-72
2022/05/21 06:59:47;;;;;;;6.78;2.10;;;;;;;-149.78;100.00;50252.41;5121289;27;20023;-71
2022/05/21 07:02:13;;;;;;;9.43;2.35;;;;;;;-149.78;100.00;50244.59;5121731;27;20031;-70
2022/05/21 07:07:32;;;;;;;10.90;2.78;;;;;;;-149.78;100.00;50260.22;5118078;27;20169;-72
2022/05/21 07:10:01;;;;;;;6.75;1.88;;;;;;;-149.78;100.00;50248.50;5120043;27;20066;-70
2022/05/21 07:12:27;;;;;;;9.73;2.60;;;;;;;-149.78;100.00;50242.63;5098723;28;20027;-71
2022/05/21 07:14:53;;;;;;;6.32;1.60;;;;;;;-149.78;100.00;50240.66;5117463;27;20048;-71
2022/05/21 07:17:19;;;;;;;12.38;2.33;;;;;;;-149.78;100.00;50232.84;5105015;28;20382;-71
2022/05/21 07:19:44;;;;;;;8.70;1.90;;;;;;;-149.78;100.00;50236.75;5106304;27;20081;-72
2022/05/21 07:22:10;;;;;;;9.55;2.00;;;;;;;-149.78;100.00;50213.28;5116306;27;20372;-71
2022/05/21 07:24:42;;;;;;;5.20;2.03;;;;;;;-149.78;100.00;50244.59;5100290;27;20032;-72
2022/05/21 07:27:08;;;;;;;10.13;2.03;;;;;;;-149.78;100.00;50248.50;5117315;27;20039;-71
2022/05/21 07:29:35;;;;;;;7.07;1.55;;;;;;;-149.78;100.00;50228.94;5098192;28;20039;-71
2022/05/21 07:32:01;;;;;;;6.50;2.05;;;;;;;-149.78;100.00;50232.84;5120817;27;20085;-72
2022/05/21 07:34:27;;;;;;;8.70;1.85;;;;;;;-149.78;100.00;50211.34;5105709;27;20490;-73
2022/05/21 07:36:53;;;;;;;8.57;2.08;;;;;;;-149.78;100.00;50232.84;5115012;27;20032;-73
2022/05/21 07:39:19;;;;;;;6.53;1.92;;;;;;;-149.78;100.00;50225.03;5095515;28;20356;-72
2022/05/21 07:41:44;;;;;;;8.05;2.13;;;;;;;-149.78;100.00;50244.59;5117778;28;20036;-72
2022/05/21 07:44:10;;;;;;;7.85;1.80;;;;;;;-149.78;100.00;50189.81;5103573;28;20027;-72
2022/05/21 07:46:36;;;;;;;9.00;2.40;;;;;;;-149.78;100.00;50203.50;5135114;27;20500;-71
2022/05/21 07:49:02;;;;;;;7.82;1.70;;;;;;;-149.78;100.00;50248.50;5139212;27;20477;-73
2022/05/21 07:51:28;;;;;;;8.52;2.22;;;;;;;-149.78;100.00;50230.88;5116141;27;20043;-71
2022/05/21 07:53:54;;;;;;;6.65;2.00;;;;;;;-149.78;100.00;50213.28;5119596;27;20027;-71
2022/05/21 07:56:20;;;;;;;10.32;2.30;;;;;;;-149.78;100.00;50217.19;5119797;27;20490;-69
2022/05/21 07:58:47;;;;;;;11.13;2.55;;;;;;;-149.78;100.00;50232.84;5128396;27;20091;-69
2022/05/21 08:01:13;;;;;;;6.93;1.90;;;;;;;-149.78;100.00;50213.28;5134981;27;20878;-70
2022/05/21 08:03:38;;;;;;;9.82;1.95;;;;;;;-149.78;100.00;50180.03;5107614;27;20103;-70
2022/05/21 08:06:04;;;;;;;9.13;2.00;;;;;;;-149.78;100.00;50197.66;5124601;27;20039;-69
2022/05/21 08:08:30;;;;;;;12.75;2.58;;;;;;;-149.78;100.00;50221.13;5097796;27;20038;-69
2022/05/21 08:10:56;;;;;;;6.18;1.80;;;;;;;-149.78;100.00;50240.66;5107893;27;20043;-69
2022/05/21 08:13:21;;;;;;;8.57;2.25;;;;;;;-149.78;100.00;50217.19;5100209;27;20050;-70
2022/05/21 08:15:47;;;;;;;7.05;2.20;;;;;;;-149.78;100.00;50236.75;5083897;27;20038;-69
2022/05/21 08:18:13;;;;;;;9.98;2.45;;;;;;;-149.78;100.00;50248.50;5099026;28;20067;-69
2022/05/21 08:20:40;;;;;;;10.40;2.08;;;;;;;-149.78;100.00;50221.13;5100260;27;20467;-69
2022/05/21 08:28:39;;;;;;;10.93;2.53;;;;;;;-149.78;100.00;50225.03;5111727;27;20106;-69
2022/05/21 08:31:04;;;;;;;11.82;2.65;;;;;;;-149.78;100.00;50228.94;5123518;27;20165;-70
2022/05/21 08:33:31;;;;;;;7.85;2.30;;;;;;;-149.78;100.00;50225.03;5083252;28;20070;-70
2022/05/21 08:35:57;;;;;;;9.57;3.17;;;;;;;-149.78;100.00;50236.75;5094090;27;20475;-70
2022/05/21 08:38:22;;;;;;;9.63;2.33;;;;;;;-149.78;100.00;50238.72;5117533;27;20076;-72
2022/05/21 08:40:56;;;;;;;8.90;2.35;;;;;;;-149.78;100.00;50205.47;5109164;27;20042;-70
2022/05/21 08:43:27;;;;;;;5.45;1.70;;;;;;;-149.78;100.00;50248.50;5104747;27;20367;-70
2022/05/21 08:46:07;;;;;;;5.82;1.80;;;;;;;-149.78;100.00;50232.84;5102878;27;20023;-70
2022/05/21 08:48:36;;;;;;;8.27;1.90;;;;;;;-149.78;100.00;50264.13;5125122;27;20038;-70
2022/05/21 08:51:07;;;;;;;7.03;1.80;;;;;;;-149.78;100.00;50236.75;5098738;27;20088;-69
2022/05/21 08:53:45;;;;;;;10.43;1.85;;;;;;;-149.78;100.00;50205.47;5119514;27;20027;-70
2022/05/21 08:56:12;;;;;;;4.60;1.50;;;;;;;-149.78;100.00;50209.38;5122285;27;20036;-70
2022/05/21 08:59:05;;;;;;;8.38;2.05;;;;;;;-149.78;100.00;50183.97;5087161;27;20031;-69
2022/05/21 09:01:35;;;;;;;6.18;1.83;;;;;;;-149.78;100.00;50230.88;5112145;27;20550;-70
2022/05/21 09:04:01;;;;;;;7.97;1.42;;;;;;;-149.78;100.00;50195.69;5118748;27;20035;-71
2022/05/21 09:06:45;;;;;;;6.80;1.77;;;;;;;-149.78;100.00;50197.66;5137201;27;20023;-70
2022/05/21 09:09:48;;;;;;;6.85;1.92;;;;;;;-149.78;100.00;50260.22;5118501;27;20049;-70
2022/05/21 09:12:22;;;;;;;6.95;2.00;;;;;;;-149.78;100.00;50236.75;5136683;27;20035;-70
2022/05/21 09:14:55;;;;;;;7.05;1.73;;;;;;;-149.78;100.00;50217.19;5136713;27;20055;-70
2022/05/21 09:17:24;;;;;;;8.40;1.75;;;;;;;-149.78;100.00;50201.56;5116649;27;20050;-70
2022/05/21 09:19:57;;;;;;;9.80;1.70;;;;;;;-149.78;100.00;50226.97;5125683;27;20023;-70
2022/05/21 09:22:23;;;;;;;7.50;1.50;;;;;;;-149.78;100.00;50236.75;5107455;28;20031;-70
2022/05/21 09:24:54;;;;;;;8.45;2.33;;;;;;;-149.78;100.00;50213.28;5081880;27;20574;-69
2022/05/21 09:27:30;;;;;;;8.07;1.60;;;;;;;-149.78;100.00;50189.81;5098605;27;20546;-70
2022/05/21 09:30:22;;;;;;;13.23;1.75;;;;;;;-149.78;100.00;50199.59;5133928;27;20042;-70
2022/05/21 09:32:52;;;;;;;11.15;2.45;;;;;;;-149.78;100.00;50201.56;5124028;27;20047;-70
2022/05/21 09:35:21;;;;;;;8.45;1.60;;;;;;;-149.78;100.00;50238.72;5136325;27;20043;-70
2022/05/21 09:37:48;;;;;;;12.52;1.80;;;;;;;-149.78;100.00;50203.50;5117826;27;20038;-70
2022/05/21 09:40:35;;;;;;;4.82;1.40;;;;;;;-149.78;100.00;50225.03;5117790;27;20039;-70
2022/05/21 09:46:27;;;;;;;6.63;1.40;;;;;;;-149.78;100.00;50226.97;5136150;27;20023;-70
2022/05/21 09:49:11;;;;;;;4.18;1.38;;;;;;;-149.78;100.00;50248.50;5117824;27;20554;-70
2022/05/21 09:51:36;;;;;;;5.00;1.42;;;;;;;-149.78;100.00;50213.28;5135915;27;20031;-70
2022/05/21 09:54:19;;;;;;;5.40;1.40;;;;;;;-149.78;100.00;50221.13;5133465;27;20041;-70
2022/05/21 09:56:54;;;;;;;6.35;1.60;;;;;;;-149.78;100.00;50209.38;5115968;27;20044;-69
2022/05/21 09:59:23;;;;;;;5.47;1.30;;;;;;;-149.78;100.00;50213.28;5128207;27;20743;-68
2022/05/21 10:01:56;;;;;;;6.88;1.60;;;;;;;-149.78;100.00;50225.03;5123939;27;20501;-68
2022/05/21 10:04:27;;;;;;;11.02;1.88;;;;;;;-149.78;100.00;50205.47;5126182;27;20587;-70
2022/05/21 10:07:10;;;;;;;6.75;1.58;;;;;;;-149.78;100.00;50197.66;5116250;27;20034;-68
2022/05/21 10:12:37;;;;;;;2.30;1.33;;;;;;;-149.78;100.00;50176.13;5127833;27;20033;-68
2022/05/21 10:15:10;;;;;;;6.32;1.48;;;;;;;-149.78;100.00;50240.66;5118922;27;20055;-68
2022/05/21 10:17:42;;;;;;;4.30;2.20;;;;;;;-149.78;100.00;50225.03;5108808;27;20039;-67
2022/05/21 10:20:46;;;;;;;6.57;1.35;;;;;;;-149.78;100.00;50209.38;5117697;27;20027;-69
2022/05/21 10:23:34;;;;;;;8.73;1.70;;;;;;;-149.78;100.00;50185.91;5023883;28;20029;-69
2022/05/21 10:26:37;;;;;;;9.25;1.73;;;;;;;-149.78;100.00;50213.28;5116064;27;20046;-68
2022/05/21 10:29:30;;;;;;;6.50;1.42;;;;;;;-149.78;100.00;50205.47;5124328;27;20050;-68
2022/05/21 10:32:05;;;;;;;9.70;1.88;;;;;;;-149.78;100.00;50197.66;5110090;28;20035;-68
2022/05/21 10:34:41;;;;;;;6.75;1.52;;;;;;;-149.78;100.00;50197.66;5127712;27;20031;-68
2022/05/21 10:37:10;;;;;;;8.23;1.92;;;;;;;-149.78;100.00;50182.00;5119879;27;20115;-69
2022/05/21 10:39:58;;;;;;;9.93;1.63;;;;;;;-149.78;100.00;50154.63;5120887;27;20382;-68
2022/05/21 10:42:36;;;;;;;7.15;1.70;;;;;;;-149.78;100.00;50166.34;5122333;27;20023;-68
2022/05/21 10:45:30;;;;;;;6.00;1.92;;;;;;;-149.78;100.00;50183.97;5124033;27;20053;-68
2022/05/21 10:48:14;;;;;;;7.35;2.40;;;;;;;-149.78;100.00;50150.72;5095072;28;20043;-69
2022/05/21 10:50:58;;;;;;;7.50;1.70;;;;;;;-149.78;100.00;50170.25;5096948;27;20420;-69
2022/05/21 10:53:23;;;;;;;5.43;1.63;;;;;;;-149.78;100.00;50135.06;5119823;27;20471;-68
2022/05/21 10:56:17;;;;;;;7.60;1.98;;;;;;;-149.78;100.00;50127.25;5120077;27;20036;-69
2022/05/21 10:58:45;;;;;;;6.75;1.80;;;;;;;-149.78;100.00;50111.59;5104778;27;20023;-69
2022/05/21 11:01:14;;;;;;;9.73;1.33;;;;;;;-149.78;100.00;50095.94;5121597;27;20079;-69
2022/05/21 11:04:27;;;;;;;3.88;1.45;;;;;;;-149.78;100.00;50095.94;5099334;28;20410;-68
2022/05/21 11:07:03;;;;;;;5.33;1.53;;;;;;;-149.78;100.00;50084.22;5117616;27;20050;-68
2022/05/21 11:09:59;;;;;;;3.78;1.52;;;;;;;-149.78;100.00;50113.56;5100405;28;20475;-68
2022/05/21 11:12:33;;;;;;;5.45;1.40;;;;;;;-149.78;100.00;50094.00;5119549;27;20019;-68
2022/05/21 11:15:01;;;;;;;6.57;1.33;;;;;;;-149.78;100.00;50138.97;5123103;27;20440;-68
2022/05/21 11:17:36;;;;;;;2.67;1.52;;;;;;;-149.78;100.00;50150.72;5118195;27;20423;-68
2022/05/21 11:20:06;;;;;;;6.55;1.58;;;;;;;-149.78;100.00;50150.72;5116738;27;21474;-69
2022/05/21 11:22:40;;;;;;;4.28;1.60;;;;;;;-149.78;100.00;50103.78;5118736;27;20030;-68
2022/05/21 11:25:23;;;;;;;6.93;1.60;;;;;;;-149.78;100.00;50158.53;5120654;27;20031;-68
2022/05/21 11:28:04;;;;;;;7.95;2.15;;;;;;;-149.78;100.00;50138.97;5117340;27;20035;-66
2022/05/21 11:30:30;;;;;;;11.13;2.40;;;;;;;-149.78;100.00;50158.53;5119144;27;20382;-68
2022/05/21 11:38:49;;;;;;;8.48;2.08;;;;;;;-149.78;100.00;50189.81;5128886;27;20051;-67
2022/05/21 11:41:30;;;;;;;8.50;2.22;;;;;;;-149.78;100.00;50150.72;5092807;28;20119;-67
2022/05/21 11:47:05;;;;;;;13.70;4.25;;;;;;;-149.78;100.00;50170.25;5118126;28;20068;-66
2022/05/21 11:49:39;;;;;;;24.08;10.32;;;;;;;-149.78;100.00;50138.97;5102135;28;20035;-66
2022/05/21 11:52:27;;;;;;;10.57;2.53;;;;;;;-149.78;100.00;50129.19;5117370;28;20027;-65